createdAt,value
2019-03-16T00:00:58.968Z,77.86
2019-03-16T00:03:40.457Z,77.98
2019-03-16T00:06:10.392Z,77.98
2019-03-16T00:08:39.753Z,78.17
2019-03-16T00:11:09.395Z,78.08
2019-03-16T00:13:39.116Z,78.34
2019-03-16T00:16:09.625Z,78.63
2019-03-16T00:18:39.266Z,78.67
2019-03-16T00:21:08.858Z,78.93
2019-03-16T00:23:38.513Z,79.00
2019-03-16T00:26:08.935Z,79.10
2019-03-16T00:28:50.470Z,79.01
2019-03-16T00:31:19.996Z,79.01
2019-03-16T00:34:08.848Z,79.44
2019-03-16T00:36:38.501Z,79.43
2019-03-16T00:42:10.951Z,79.39
2019-03-16T00:44:40.598Z,79.55
2019-03-16T00:47:09.976Z,79.56
2019-03-16T00:49:41.213Z,79.72
2019-03-16T00:52:10.889Z,79.79
2019-03-16T00:54:40.558Z,79.83
2019-03-16T00:57:10.241Z,79.73
2019-03-16T00:59:39.755Z,79.58
2019-03-16T01:02:09.111Z,79.58
2019-03-16T01:04:38.669Z,79.84
2019-03-16T01:07:09.299Z,79.84
2019-03-16T01:09:38.657Z,79.88
2019-03-16T01:12:28.418Z,80.02
2019-03-16T01:14:57.767Z,79.76
2019-03-16T01:17:27.140Z,79.89
2019-03-16T01:20:09.252Z,80.26
2019-03-16T01:22:51.302Z,80.12
2019-03-16T01:25:21.019Z,80.12
2019-03-16T01:27:50.681Z,80.13
2019-03-16T01:30:20.333Z,79.82
2019-03-16T01:33:09.487Z,79.74
2019-03-16T01:35:50.933Z,79.28
2019-03-16T01:38:20.609Z,79.28
2019-03-16T01:40:49.971Z,79.13
2019-03-16T01:43:19.359Z,78.86
2019-03-16T01:45:48.864Z,77.97
2019-03-16T01:48:18.519Z,77.97
2019-03-16T01:51:07.242Z,77.17
2019-03-16T01:53:36.938Z,76.99
2019-03-16T01:56:06.298Z,76.99
2019-03-16T01:58:55.214Z,76.35
2019-03-16T02:01:24.856Z,76.35
2019-03-16T02:03:54.231Z,75.34
2019-03-16T02:06:24.477Z,75.19
2019-03-16T02:08:53.989Z,74.43
2019-03-16T02:11:23.343Z,74.43
2019-03-16T02:14:12.394Z,73.97
2019-03-16T02:16:41.937Z,73.62
2019-03-16T02:19:11.305Z,73.62
2019-03-16T02:21:52.980Z,73.38
2019-03-16T02:24:23.034Z,73.38
2019-03-16T02:26:52.386Z,73.63
2019-03-16T02:29:23.620Z,73.16
2019-03-16T02:31:52.967Z,73.23
2019-03-16T02:34:22.533Z,73.49
2019-03-16T02:39:54.103Z,74.38
2019-03-16T02:42:24.040Z,75.03
2019-03-16T02:45:12.784Z,75.94
2019-03-16T02:47:54.341Z,76.43
2019-03-16T02:50:23.709Z,76.43
2019-03-16T02:53:12.612Z,77.04
2019-03-16T02:55:42.334Z,77.04
2019-03-16T02:58:11.672Z,77.32
2019-03-16T03:00:54.072Z,77.68
2019-03-16T03:03:29.835Z,77.68
2019-03-16T03:06:00.450Z,77.47
2019-03-16T03:08:29.802Z,77.53
2019-03-16T03:11:12.165Z,77.48
2019-03-16T03:13:41.855Z,77.48
2019-03-16T03:16:31.250Z,77.37
2019-03-16T03:19:00.951Z,77.37
2019-03-16T03:24:45.845Z,77.47
2019-03-16T03:27:15.569Z,77.59
2019-03-16T03:29:46.536Z,77.55
2019-03-16T03:32:15.890Z,77.63
2019-03-16T03:34:45.372Z,77.48
2019-03-16T03:37:15.304Z,77.42
2019-03-16T03:39:44.673Z,77.42
2019-03-16T03:42:14.322Z,77.76
2019-03-16T03:44:43.753Z,77.94
2019-03-16T03:47:13.404Z,77.92
2019-03-16T03:49:42.773Z,77.93
2019-03-16T03:52:12.418Z,78.16
2019-03-16T03:54:41.851Z,78.31
2019-03-16T03:57:23.794Z,78.80
2019-03-16T04:00:05.862Z,79.00
2019-03-16T04:02:35.412Z,78.97
2019-03-16T04:08:06.683Z,79.06
2019-03-16T04:10:48.786Z,78.91
2019-03-16T04:13:13.143Z,78.99
2019-03-16T04:15:42.921Z,78.98
2019-03-16T04:18:12.574Z,78.98
2019-03-16T04:20:41.943Z,78.92
2019-03-16T04:23:11.582Z,78.93
2019-03-16T04:25:40.948Z,78.75
2019-03-16T04:28:10.588Z,78.85
2019-03-16T04:30:39.947Z,79.03
2019-03-16T04:33:10.197Z,78.69
2019-03-16T04:35:39.567Z,78.94
2019-03-16T04:38:09.891Z,78.84
2019-03-16T04:40:39.558Z,78.94
2019-03-16T04:43:09.875Z,79.03
2019-03-16T04:45:39.533Z,78.90
2019-03-16T04:48:09.927Z,78.89
2019-03-16T04:50:39.902Z,78.80
2019-03-16T04:53:09.911Z,78.77
2019-03-16T04:58:28.724Z,79.01
2019-03-16T05:00:58.100Z,78.52
2019-03-16T05:03:28.014Z,78.41
2019-03-16T05:05:57.393Z,78.61
2019-03-16T05:08:38.822Z,78.47
2019-03-16T05:11:08.185Z,78.47
2019-03-16T05:13:37.829Z,78.60
2019-03-16T05:16:07.194Z,78.46
2019-03-16T05:18:36.851Z,78.32
2019-03-16T05:21:06.220Z,78.47
2019-03-16T05:23:55.214Z,78.63
2019-03-16T05:26:24.871Z,78.63
2019-03-16T05:28:54.225Z,78.52
2019-03-16T05:31:23.704Z,78.55
2019-03-16T05:33:53.424Z,77.02
2019-03-16T05:36:23.075Z,77.02
2019-03-16T05:38:52.741Z,77.27
2019-03-16T05:41:22.257Z,77.86
2019-03-16T05:44:11.619Z,73.59
2019-03-16T05:46:53.302Z,73.68
2019-03-16T05:49:22.651Z,73.68
2019-03-16T05:51:52.528Z,76.57
2019-03-16T05:54:22.170Z,76.57
2019-03-16T05:56:51.786Z,75.91
2019-03-16T05:59:21.458Z,76.13
2019-03-16T06:02:10.625Z,76.21
2019-03-16T06:04:40.028Z,76.44
2019-03-16T06:07:10.769Z,76.44
2019-03-16T06:09:40.168Z,78.06
2019-03-16T06:12:10.448Z,78.06
2019-03-16T06:14:52.858Z,79.91
2019-03-16T06:17:22.310Z,79.91
2019-03-16T06:19:51.956Z,80.99
2019-03-16T06:22:21.611Z,81.96
2019-03-16T06:25:10.555Z,82.72
2019-03-16T06:28:20.262Z,82.72
2019-03-16T06:30:49.631Z,83.62
2019-03-16T06:33:19.277Z,83.77
2019-03-16T06:35:59.615Z,84.24
2019-03-16T06:38:29.321Z,84.42
2019-03-16T06:40:58.996Z,85.14
2019-03-16T06:43:28.337Z,85.50
2019-03-16T06:45:57.709Z,85.37
2019-03-16T06:48:27.189Z,85.71
2019-03-16T06:50:56.549Z,86.26
2019-03-16T06:53:39.245Z,86.30
2019-03-16T06:56:08.613Z,86.66
2019-03-16T06:58:38.112Z,86.69
2019-03-16T07:01:07.819Z,87.12
2019-03-16T07:03:37.260Z,87.58
2019-03-16T07:06:06.968Z,88.04
2019-03-16T07:08:36.535Z,88.16
2019-03-16T07:11:06.146Z,88.34
2019-03-16T07:13:35.521Z,88.85
2019-03-16T07:16:04.888Z,88.96
2019-03-16T07:18:34.626Z,89.03
2019-03-16T07:21:04.242Z,89.26
2019-03-16T07:23:33.785Z,89.49
2019-03-16T07:26:14.052Z,89.07
2019-03-16T07:28:39.742Z,88.93
2019-03-16T07:31:10.585Z,89.08
2019-03-16T07:33:40.242Z,89.06
2019-03-16T07:36:10.730Z,88.95
2019-03-16T07:38:40.207Z,88.87
2019-03-16T07:41:10.845Z,88.95
2019-03-16T07:43:40.449Z,88.89
2019-03-16T07:46:10.866Z,89.01
2019-03-16T07:48:40.397Z,89.02
2019-03-16T07:51:10.618Z,89.32
2019-03-16T07:53:40.255Z,89.49
2019-03-16T07:56:10.725Z,89.40
2019-03-16T07:58:40.361Z,89.46
2019-03-16T08:01:10.633Z,89.59
2019-03-16T08:03:40.240Z,89.29
2019-03-16T08:06:11.031Z,89.11
2019-03-16T08:08:40.622Z,88.75
2019-03-16T08:11:10.928Z,89.02
2019-03-16T08:13:40.568Z,89.35
2019-03-16T08:16:11.290Z,89.54
2019-03-16T08:18:40.800Z,89.55
2019-03-16T08:21:11.426Z,88.15
2019-03-16T08:23:40.771Z,87.88
2019-03-16T08:26:11.071Z,88.38
2019-03-16T08:28:40.649Z,88.79
2019-03-16T08:34:21.002Z,89.14
2019-03-16T08:36:50.377Z,89.17
2019-03-16T08:39:20.039Z,89.58
2019-03-16T08:41:49.693Z,89.68
2019-03-16T08:44:19.045Z,89.68
2019-03-16T08:46:48.698Z,90.61
2019-03-16T08:49:18.338Z,90.93
2019-03-16T08:51:47.869Z,91.15
2019-03-16T08:54:17.226Z,91.35
2019-03-16T08:56:46.849Z,91.66
2019-03-16T08:59:16.211Z,91.76
2019-03-16T09:01:45.774Z,92.09
2019-03-16T09:04:15.148Z,91.92
2019-03-16T09:06:44.789Z,92.01
2019-03-16T09:09:14.237Z,92.03
2019-03-16T09:11:43.828Z,92.47
2019-03-16T09:14:13.201Z,92.77
2019-03-16T09:19:44.382Z,93.55
2019-03-16T09:22:14.029Z,93.82
2019-03-16T09:24:56.449Z,93.90
2019-03-16T09:27:30.993Z,94.03
2019-03-16T09:30:02.323Z,94.74
2019-03-16T09:32:31.954Z,95.12
2019-03-16T09:35:01.300Z,95.45
2019-03-16T09:37:30.821Z,95.63
2019-03-16T09:40:00.268Z,95.72
2019-03-16T09:42:29.989Z,96.07
2019-03-16T09:44:59.498Z,96.64
2019-03-16T09:47:29.561Z,96.72
2019-03-16T09:52:54.276Z,97.54
2019-03-16T09:55:24.192Z,98.08
2019-03-16T09:57:53.899Z,98.31
2019-03-16T10:00:23.264Z,98.28
2019-03-16T10:02:52.937Z,98.53
2019-03-16T10:05:22.356Z,98.90
2019-03-16T10:07:51.986Z,99.33
2019-03-16T10:10:21.350Z,99.77
2019-03-16T10:12:51.252Z,100.00
2019-03-16T10:15:20.914Z,100.00
2019-03-16T10:17:50.598Z,100.00
2019-03-16T10:23:21.958Z,100.00
2019-03-16T10:26:02.184Z,100.00
2019-03-16T10:28:43.226Z,100.00
2019-03-16T10:31:22.678Z,100.00
2019-03-16T10:34:11.520Z,100.00
2019-03-16T10:36:41.058Z,100.00
2019-03-16T10:39:11.554Z,100.00
2019-03-16T10:41:40.998Z,100.00
2019-03-16T10:44:11.393Z,100.00
2019-03-16T10:46:41.047Z,100.00
2019-03-16T10:49:11.497Z,100.00
2019-03-16T10:51:41.076Z,100.00
2019-03-16T10:54:11.445Z,100.00
2019-03-16T10:56:41.178Z,100.00
2019-03-16T10:59:11.647Z,100.00
2019-03-16T11:01:41.167Z,100.00
2019-03-16T11:04:12.458Z,100.00
2019-03-16T11:06:54.886Z,100.00
2019-03-16T11:09:26.632Z,100.00
2019-03-16T11:12:00.624Z,100.00
2019-03-16T11:14:30.094Z,100.00
2019-03-16T11:16:59.800Z,100.00
2019-03-16T11:19:35.089Z,100.00
2019-03-16T11:22:04.477Z,100.00
2019-03-16T11:24:34.183Z,100.00
2019-03-16T11:29:57.455Z,100.00
2019-03-16T11:32:27.331Z,100.00
2019-03-16T11:34:56.718Z,100.00
2019-03-16T11:37:26.400Z,100.00
2019-03-16T11:39:56.168Z,100.00
2019-03-16T11:42:25.747Z,100.00
2019-03-16T11:44:55.537Z,100.00
2019-03-16T11:47:25.493Z,100.00
2019-03-16T11:49:54.869Z,100.00
2019-03-16T11:55:46.355Z,100.00
2019-03-16T12:04:42.478Z,99.57
2019-03-16T12:07:12.187Z,99.21
2019-03-16T12:09:41.633Z,99.66
2019-03-16T12:12:11.772Z,99.70
2019-03-16T12:14:41.443Z,99.36
2019-03-16T12:17:11.721Z,99.30
2019-03-16T12:19:41.412Z,98.99
2019-03-16T12:22:11.739Z,98.93
2019-03-16T12:24:41.366Z,98.46
2019-03-16T12:27:24.245Z,97.50
2019-03-16T12:29:53.618Z,97.50
2019-03-16T12:32:23.359Z,97.85
2019-03-16T12:34:52.709Z,96.66
2019-03-16T12:37:22.291Z,96.27
2019-03-16T12:39:51.633Z,95.83
2019-03-16T12:42:21.611Z,95.86
2019-03-16T12:44:50.974Z,95.22
2019-03-16T12:47:20.625Z,94.42
2019-03-16T12:49:49.990Z,93.75
2019-03-16T12:52:19.644Z,93.23
2019-03-16T12:54:49.035Z,93.40
2019-03-16T12:57:18.656Z,92.88
2019-03-16T12:59:48.013Z,93.25
2019-03-16T13:02:17.737Z,92.73
2019-03-16T13:04:47.375Z,92.12
2019-03-16T13:07:16.737Z,91.67
2019-03-16T13:09:46.403Z,91.78
2019-03-16T13:12:15.790Z,91.42
2019-03-16T13:14:45.137Z,90.97
2019-03-16T13:17:14.780Z,90.15
2019-03-16T13:19:44.430Z,90.11
2019-03-16T13:22:13.815Z,89.70
2019-03-16T13:24:43.471Z,89.26
2019-03-16T13:27:13.148Z,89.31
2019-03-16T13:32:23.208Z,89.01
2019-03-16T13:34:52.749Z,88.66
2019-03-16T13:37:22.509Z,88.51
2019-03-16T13:39:51.880Z,88.34
2019-03-16T13:42:21.863Z,88.14
2019-03-16T13:44:51.209Z,88.33
2019-03-16T13:47:20.871Z,87.51
2019-03-16T13:49:50.873Z,87.66
2019-03-16T13:52:20.223Z,87.78
2019-03-16T13:54:49.629Z,87.51
2019-03-16T13:57:39.775Z,87.23
2019-03-16T14:00:56.389Z,86.62
2019-03-16T14:03:26.023Z,86.62
2019-03-16T14:05:55.683Z,86.71
2019-03-16T14:08:25.079Z,86.67
2019-03-16T14:10:56.062Z,86.07
2019-03-16T14:13:46.224Z,86.46
2019-03-16T14:16:45.699Z,86.55
2019-03-16T14:19:15.119Z,86.19
2019-03-16T14:21:44.760Z,85.51
2019-03-16T14:24:14.195Z,85.82
2019-03-16T14:29:14.043Z,84.89
2019-03-16T14:31:43.746Z,85.04
2019-03-16T14:34:13.110Z,85.19
2019-03-16T14:36:42.815Z,85.20
2019-03-16T14:39:12.178Z,84.31
2019-03-16T14:41:41.846Z,83.98
2019-03-16T14:44:12.280Z,83.78
2019-03-16T14:46:41.932Z,83.83
2019-03-16T14:49:12.589Z,83.00
2019-03-16T14:51:41.959Z,82.83
2019-03-16T14:54:12.307Z,82.67
2019-03-16T14:56:41.963Z,82.57
2019-03-16T14:59:12.215Z,82.60
2019-03-16T15:01:42.199Z,82.70
2019-03-16T15:04:12.251Z,82.72
2019-03-16T15:06:41.915Z,82.14
2019-03-16T15:09:24.774Z,82.48
2019-03-16T15:11:54.130Z,82.48
2019-03-16T15:14:23.794Z,82.10
2019-03-16T15:16:53.170Z,82.38
2019-03-16T15:19:24.492Z,82.85
2019-03-16T15:21:53.913Z,82.92
2019-03-16T15:24:23.570Z,82.79
2019-03-16T15:26:53.067Z,82.81
2019-03-16T15:29:22.444Z,83.05
2019-03-16T15:31:52.343Z,82.94
2019-03-16T15:34:41.359Z,82.43
2019-03-16T15:37:12.403Z,82.43
2019-03-16T15:39:42.065Z,83.38
2019-03-16T15:42:24.434Z,84.30
2019-03-16T15:44:54.094Z,84.30
2019-03-16T15:47:23.558Z,84.04
2019-03-16T15:49:53.056Z,84.53
2019-03-16T15:52:22.791Z,84.32
2019-03-16T15:54:54.070Z,84.60
2019-03-16T15:57:23.723Z,84.70
2019-03-16T15:59:53.204Z,84.61
2019-03-16T16:02:22.571Z,83.92
2019-03-16T16:04:52.186Z,83.28
2019-03-16T16:07:22.130Z,83.18
2019-03-16T16:09:51.742Z,82.63
2019-03-16T16:12:21.405Z,82.18
2019-03-16T16:14:50.774Z,82.26
2019-03-16T16:17:20.713Z,81.61
2019-03-16T16:19:50.321Z,81.40
2019-03-16T16:22:19.680Z,81.39
2019-03-16T16:24:49.204Z,80.65
2019-03-16T16:27:18.553Z,80.71
2019-03-16T16:29:48.548Z,80.33
2019-03-16T16:32:18.204Z,80.76
2019-03-16T16:34:47.868Z,80.51
2019-03-16T16:37:17.488Z,80.49
2019-03-16T16:39:47.149Z,80.31
2019-03-16T16:42:16.569Z,80.13
2019-03-16T16:44:45.938Z,80.21
2019-03-16T16:47:15.579Z,79.33
2019-03-16T16:49:45.270Z,78.83
2019-03-16T16:52:14.620Z,78.99
2019-03-16T16:54:44.270Z,78.79
2019-03-16T16:57:13.914Z,78.38
2019-03-16T16:59:43.429Z,78.01
2019-03-16T17:02:12.807Z,77.91
2019-03-16T17:04:42.551Z,77.56
2019-03-16T17:07:12.661Z,77.14
2019-03-16T17:10:01.831Z,77.10
2019-03-16T17:12:31.416Z,77.10
2019-03-16T17:15:00.760Z,76.49
2019-03-16T17:17:35.394Z,76.71
2019-03-16T17:20:26.804Z,76.03
2019-03-16T17:23:08.804Z,75.52
2019-03-16T17:25:38.556Z,74.88
2019-03-16T17:28:07.914Z,75.15
2019-03-16T17:30:37.564Z,74.82
2019-03-16T17:33:06.914Z,74.40
2019-03-16T17:35:36.450Z,74.30
2019-03-16T17:38:06.076Z,74.43
2019-03-16T17:40:35.516Z,74.38
2019-03-16T17:43:04.884Z,74.55
2019-03-16T17:45:34.549Z,74.58
2019-03-16T17:48:03.913Z,74.77
2019-03-16T17:50:33.494Z,74.86
2019-03-16T17:53:03.180Z,75.04
2019-03-16T17:55:32.545Z,75.44
2019-03-16T17:58:01.906Z,75.47
2019-03-16T18:00:31.556Z,75.57
2019-03-16T18:03:00.920Z,75.66
2019-03-16T18:05:30.525Z,75.73
2019-03-16T18:08:00.135Z,75.90
2019-03-16T18:10:31.112Z,75.87
2019-03-16T18:13:00.786Z,76.15
2019-03-16T18:15:30.467Z,76.00
2019-03-16T18:17:59.833Z,76.03
2019-03-16T18:20:41.718Z,76.00
2019-03-16T18:23:11.079Z,76.41
2019-03-16T18:25:40.632Z,76.53
2019-03-16T18:28:09.962Z,76.38
2019-03-16T18:30:39.327Z,76.53
2019-03-16T18:33:08.698Z,76.50
2019-03-16T18:35:38.071Z,76.69
2019-03-16T18:38:08.109Z,76.85
2019-03-16T18:40:37.656Z,76.86
2019-03-16T18:43:07.024Z,77.02
2019-03-16T18:45:36.765Z,76.98
2019-03-16T18:48:06.115Z,77.00
2019-03-16T18:50:35.783Z,77.04
2019-03-16T18:53:05.137Z,76.84
2019-03-16T18:55:34.739Z,76.91
2019-03-16T18:58:04.367Z,77.03
2019-03-16T19:00:33.884Z,76.97
2019-03-16T19:03:03.253Z,76.40
2019-03-16T19:05:32.731Z,76.30
2019-03-16T19:08:02.086Z,76.17
2019-03-16T19:10:33.058Z,75.89
2019-03-16T19:13:02.433Z,75.48
2019-03-16T19:15:31.890Z,75.20
2019-03-16T19:18:01.253Z,75.36
2019-03-16T19:20:31.256Z,75.36
2019-03-16T19:23:01.116Z,75.16
2019-03-16T19:25:51.098Z,75.11
2019-03-16T19:28:21.105Z,74.97
2019-03-16T19:30:50.693Z,75.04
2019-03-16T19:33:21.977Z,74.89
2019-03-16T19:35:53.014Z,74.86
2019-03-16T19:38:22.454Z,74.94
2019-03-16T19:40:51.904Z,74.91
2019-03-16T19:43:21.258Z,74.98
2019-03-16T19:45:50.915Z,74.93
2019-03-16T19:48:20.284Z,74.89
2019-03-16T19:50:49.947Z,75.19
2019-03-16T19:53:19.378Z,75.24
2019-03-16T19:55:49.001Z,75.43
2019-03-16T19:58:18.650Z,75.29
2019-03-16T20:04:03.257Z,75.34
2019-03-16T20:06:32.639Z,74.93
2019-03-16T20:09:01.991Z,75.22
2019-03-16T20:11:33.164Z,74.97
2019-03-16T20:14:02.531Z,75.24
2019-03-16T20:16:32.126Z,75.28
2019-03-16T20:19:01.489Z,75.07
2019-03-16T20:21:31.158Z,75.29
2019-03-16T20:24:00.516Z,75.52
2019-03-16T20:26:40.590Z,74.93
2019-03-16T20:29:10.236Z,74.93
2019-03-16T20:31:46.703Z,75.40
2019-03-16T20:34:32.040Z,75.24
2019-03-16T20:37:20.491Z,75.50
2019-03-16T20:39:50.134Z,75.40
2019-03-16T20:42:19.512Z,75.44
2019-03-16T20:44:49.209Z,75.32
2019-03-16T20:47:26.761Z,75.35
2019-03-16T20:49:56.391Z,75.25
2019-03-16T20:52:25.764Z,75.40
2019-03-16T20:54:55.191Z,75.38
2019-03-16T20:57:24.702Z,75.48
2019-03-16T20:59:54.191Z,75.44
2019-03-16T21:02:23.553Z,75.60
2019-03-16T21:04:52.910Z,75.83
2019-03-16T21:07:22.571Z,75.46
2019-03-16T21:09:52.217Z,75.36
2019-03-16T21:12:21.630Z,75.41
2019-03-16T21:14:51.227Z,75.50
2019-03-16T21:17:20.886Z,75.39
2019-03-16T21:19:50.401Z,75.41
2019-03-16T21:22:19.767Z,75.38
2019-03-16T21:24:49.325Z,75.46
2019-03-16T21:27:18.695Z,75.46
2019-03-16T21:29:48.672Z,75.49
2019-03-16T21:32:18.037Z,75.42
2019-03-16T21:34:47.402Z,75.74
2019-03-16T21:37:16.778Z,75.46
2019-03-16T21:39:46.371Z,75.26
2019-03-16T21:42:15.677Z,75.32
2019-03-16T21:44:45.357Z,75.28
2019-03-16T21:47:15.014Z,75.15
2019-03-16T21:49:44.511Z,75.32
2019-03-16T21:52:13.923Z,75.18
2019-03-16T21:54:43.486Z,75.24
2019-03-16T21:57:13.810Z,75.31
2019-03-16T21:59:43.469Z,75.30
2019-03-16T22:02:13.837Z,74.66
2019-03-16T22:04:43.479Z,74.66
2019-03-16T22:07:13.867Z,74.75
2019-03-16T22:09:43.486Z,75.05
2019-03-16T22:12:13.835Z,74.68
2019-03-16T22:14:43.490Z,74.74
2019-03-16T22:17:13.807Z,74.72
2019-03-16T22:19:43.525Z,74.85
2019-03-16T22:22:13.976Z,74.74
2019-03-16T22:24:43.593Z,74.86
2019-03-16T22:27:13.842Z,74.74
2019-03-16T22:29:43.477Z,74.93
2019-03-16T22:32:14.117Z,74.95
2019-03-16T22:34:44.032Z,74.77
2019-03-16T22:37:13.990Z,75.08
2019-03-16T22:39:43.599Z,75.07
2019-03-16T22:42:13.931Z,74.98
2019-03-16T22:44:43.589Z,75.09
2019-03-16T22:47:13.909Z,75.17
2019-03-16T22:49:43.254Z,75.30
2019-03-16T22:52:14.082Z,75.30
2019-03-16T22:54:43.659Z,75.36
2019-03-16T22:57:14.070Z,75.36
2019-03-16T22:59:43.697Z,75.58
2019-03-16T23:02:26.762Z,75.75
2019-03-16T23:04:56.109Z,75.75
2019-03-16T23:07:25.770Z,75.63
2019-03-16T23:09:55.122Z,75.63
2019-03-16T23:12:24.801Z,75.74
2019-03-16T23:14:54.130Z,75.66
2019-03-16T23:17:23.964Z,75.71
2019-03-16T23:19:53.310Z,75.94
2019-03-16T23:22:24.305Z,75.83
2019-03-16T23:24:53.782Z,75.84
2019-03-16T23:27:23.444Z,75.95
2019-03-16T23:29:52.795Z,75.91
2019-03-16T23:32:22.165Z,75.87
2019-03-16T23:34:51.807Z,75.84
2019-03-16T23:37:21.172Z,75.87
2019-03-16T23:39:50.820Z,76.13
2019-03-16T23:42:20.188Z,75.95
2019-03-16T23:44:49.826Z,75.57
2019-03-16T23:47:19.484Z,75.76
2019-03-16T23:49:48.972Z,75.72
2019-03-16T23:52:18.334Z,75.78
2019-03-16T23:54:47.903Z,75.97
2019-03-16T23:57:17.267Z,75.72
2019-03-16T23:59:46.842Z,75.85
